Eugene, Oregon
Current Conditions -  °F | °C
As of 8:54 AM on Friday 31 Oct 2014 (Local Time) from KEUG Reporting Station
Overcast Overcast  
Wind Chill: 11°   Ceiling: 2500
Heat Index: 11°   Visibility: 10mi
Dew Point:   Wind: 6mph
Humidity: 92%   Direction: 180°S
Pressure: 29.85"   Gusts: NA
Location:  44.05°N, 123.08°W
Report Text: KEUG 311554Z 18005KT 10SM FEW009 BKN025 OVC050 11/09 A2985 RMK AO2 SLP106 T01060094
Loading
Personal Weather Stations






























Interactive Weather Map New forecast layout! Learn more

10-Day Weather Forecast

Advertisements
Track Severe Weather on mobile